sensor_id;sensor_type;location;lat;lon;timestamp;pressure;altitude;pressure_sealevel;temperature;humidity
10348;BME280;5220;43.192;23.284;2022-12-18T00:01:15;97858.34;;;6.77;100.00
10348;BME280;5220;43.192;23.284;2022-12-18T00:03:42;97862.53;;;6.79;100.00
10348;BME280;5220;43.192;23.284;2022-12-18T00:06:09;97864.16;;;6.82;100.00
10348;BME280;5220;43.192;23.284;2022-12-18T00:08:35;97849.59;;;6.79;100.00
10348;BME280;5220;43.192;23.284;2022-12-18T00:11:31;97867.88;;;6.95;100.00
10348;BME280;5220;43.192;23.284;2022-12-18T00:14:00;97861.94;;;6.93;100.00
10348;BME280;5220;43.192;23.284;2022-12-18T00:16:28;97861.38;;;6.86;100.00
10348;BME280;5220;43.192;23.284;2022-12-18T00:18:57;97874.34;;;7.05;100.00
10348;BME280;5220;43.192;23.284;2022-12-18T00:21:24;97870.19;;;7.01;100.00
10348;BME280;5220;43.192;23.284;2022-12-18T00:23:52;97882.41;;;7.18;100.00
10348;BME280;5220;43.192;23.284;2022-12-18T00:26:20;97880.38;;;7.24;100.00
10348;BME280;5220;43.192;23.284;2022-12-18T00:28:48;97872.75;;;7.21;100.00
10348;BME280;5220;43.192;23.284;2022-12-18T00:31:19;97881.50;;;7.19;100.00
10348;BME280;5220;43.192;23.284;2022-12-18T00:33:46;97881.34;;;7.03;100.00
10348;BME280;5220;43.192;23.284;2022-12-18T00:36:15;97878.34;;;7.12;100.00
10348;BME280;5220;43.192;23.284;2022-12-18T00:38:43;97889.03;;;7.23;100.00
10348;BME280;5220;43.192;23.284;2022-12-18T00:41:11;97889.16;;;7.20;100.00
10348;BME280;5220;43.192;23.284;2022-12-18T00:43:39;97890.47;;;7.10;100.00
10348;BME280;5220;43.192;23.284;2022-12-18T00:46:05;97902.59;;;7.10;100.00
10348;BME280;5220;43.192;23.284;2022-12-18T00:48:33;97895.38;;;7.16;100.00
10348;BME280;5220;43.192;23.284;2022-12-18T00:54:44;97910.47;;;6.88;100.00
10348;BME280;5220;43.192;23.284;2022-12-18T00:57:11;97901.78;;;6.89;100.00
10348;BME280;5220;43.192;23.284;2022-12-18T00:59:38;97905.50;;;7.02;100.00
10348;BME280;5220;43.192;23.284;2022-12-18T01:02:04;97906.28;;;7.04;100.00
10348;BME280;5220;43.192;23.284;2022-12-18T01:04:33;97909.88;;;7.20;100.00
10348;BME280;5220;43.192;23.284;2022-12-18T01:07:00;97907.28;;;7.20;100.00
10348;BME280;5220;43.192;23.284;2022-12-18T01:09:26;97904.00;;;7.17;100.00
10348;BME280;5220;43.192;23.284;2022-12-18T01:11:54;97920.94;;;7.24;100.00
10348;BME280;5220;43.192;23.284;2022-12-18T01:14:20;97908.19;;;7.19;100.00
10348;BME280;5220;43.192;23.284;2022-12-18T01:16:47;97898.81;;;7.17;100.00
10348;BME280;5220;43.192;23.284;2022-12-18T01:19:14;97893.75;;;6.95;100.00
10348;BME280;5220;43.192;23.284;2022-12-18T01:21:42;97894.84;;;7.10;100.00
10348;BME280;5220;43.192;23.284;2022-12-18T01:24:10;97898.50;;;7.24;100.00
10348;BME280;5220;43.192;23.284;2022-12-18T01:26:38;97896.66;;;7.26;100.00
10348;BME280;5220;43.192;23.284;2022-12-18T01:29:04;97891.34;;;7.29;100.00
10348;BME280;5220;43.192;23.284;2022-12-18T01:31:33;97893.75;;;7.34;100.00
10348;BME280;5220;43.192;23.284;2022-12-18T01:34:01;97898.28;;;7.29;100.00
10348;BME280;5220;43.192;23.284;2022-12-18T01:36:30;97897.78;;;7.39;100.00
10348;BME280;5220;43.192;23.284;2022-12-18T01:39:02;97891.84;;;7.19;100.00
10348;BME280;5220;43.192;23.284;2022-12-18T01:41:31;97902.91;;;7.22;100.00
10348;BME280;5220;43.192;23.284;2022-12-18T01:44:58;97909.13;;;7.37;100.00
10348;BME280;5220;43.192;23.284;2022-12-18T01:47:28;97911.06;;;7.32;100.00
10348;BME280;5220;43.192;23.284;2022-12-18T01:53:28;97908.94;;;7.02;100.00
10348;BME280;5220;43.192;23.284;2022-12-18T01:55:57;97914.22;;;7.20;100.00
10348;BME280;5220;43.192;23.284;2022-12-18T01:58:30;97916.50;;;7.07;100.00
10348;BME280;5220;43.192;23.284;2022-12-18T02:01:09;97920.28;;;7.00;100.00
10348;BME280;5220;43.192;23.284;2022-12-18T02:03:36;97919.56;;;6.96;100.00
10348;BME280;5220;43.192;23.284;2022-12-18T02:06:09;97923.94;;;6.94;100.00
10348;BME280;5220;43.192;23.284;2022-12-18T02:08:46;97929.84;;;6.78;100.00
10348;BME280;5220;43.192;23.284;2022-12-18T02:11:20;97938.00;;;6.69;100.00
10348;BME280;5220;43.192;23.284;2022-12-18T02:13:55;97929.66;;;6.62;100.00
10348;BME280;5220;43.192;23.284;2022-12-18T02:16:30;97946.81;;;6.63;100.00
10348;BME280;5220;43.192;23.284;2022-12-18T02:19:03;97947.66;;;6.64;100.00
10348;BME280;5220;43.192;23.284;2022-12-18T02:21:42;97954.75;;;6.38;100.00
10348;BME280;5220;43.192;23.284;2022-12-18T02:24:19;97949.94;;;6.29;100.00
10348;BME280;5220;43.192;23.284;2022-12-18T02:26:55;97962.69;;;6.12;100.00
10348;BME280;5220;43.192;23.284;2022-12-18T02:29:57;97964.78;;;6.03;100.00
10348;BME280;5220;43.192;23.284;2022-12-18T02:32:27;97970.44;;;6.12;100.00
10348;BME280;5220;43.192;23.284;2022-12-18T02:34:57;97964.75;;;5.81;100.00
10348;BME280;5220;43.192;23.284;2022-12-18T02:37:25;97975.13;;;5.79;100.00
10348;BME280;5220;43.192;23.284;2022-12-18T02:39:56;97977.03;;;5.51;100.00
10348;BME280;5220;43.192;23.284;2022-12-18T02:42:25;97971.72;;;5.79;100.00
10348;BME280;5220;43.192;23.284;2022-12-18T02:44:55;97975.19;;;6.01;100.00
10348;BME280;5220;43.192;23.284;2022-12-18T02:47:23;97971.09;;;5.95;100.00
10348;BME280;5220;43.192;23.284;2022-12-18T02:49:58;97969.56;;;6.13;100.00
10348;BME280;5220;43.192;23.284;2022-12-18T02:52:32;97974.41;;;6.21;100.00
10348;BME280;5220;43.192;23.284;2022-12-18T02:55:18;97961.72;;;6.15;100.00
10348;BME280;5220;43.192;23.284;2022-12-18T02:57:55;97970.69;;;6.28;100.00
10348;BME280;5220;43.192;23.284;2022-12-18T03:03:50;97981.25;;;6.43;100.00
10348;BME280;5220;43.192;23.284;2022-12-18T03:06:23;97995.53;;;6.52;100.00
10348;BME280;5220;43.192;23.284;2022-12-18T03:08:53;97989.16;;;6.61;100.00
10348;BME280;5220;43.192;23.284;2022-12-18T03:11:23;97991.88;;;6.58;100.00
10348;BME280;5220;43.192;23.284;2022-12-18T03:14:06;98005.28;;;6.45;100.00
10348;BME280;5220;43.192;23.284;2022-12-18T03:16:34;97989.53;;;6.30;100.00
10348;BME280;5220;43.192;23.284;2022-12-18T03:19:06;97998.34;;;6.47;100.00
10348;BME280;5220;43.192;23.284;2022-12-18T03:21:37;97990.66;;;6.44;100.00
10348;BME280;5220;43.192;23.284;2022-12-18T03:24:07;97993.97;;;6.48;100.00
10348;BME280;5220;43.192;23.284;2022-12-18T03:26:36;98004.03;;;6.34;100.00
10348;BME280;5220;43.192;23.284;2022-12-18T03:29:08;98009.72;;;5.99;100.00
10348;BME280;5220;43.192;23.284;2022-12-18T03:31:37;97999.97;;;5.60;100.00
10348;BME280;5220;43.192;23.284;2022-12-18T03:34:10;98003.47;;;5.58;100.00
10348;BME280;5220;43.192;23.284;2022-12-18T03:36:40;98008.28;;;5.43;100.00
10348;BME280;5220;43.192;23.284;2022-12-18T03:39:07;98004.94;;;5.41;100.00
10348;BME280;5220;43.192;23.284;2022-12-18T03:41:38;98007.34;;;5.46;100.00
10348;BME280;5220;43.192;23.284;2022-12-18T03:44:12;98010.97;;;5.40;100.00
10348;BME280;5220;43.192;23.284;2022-12-18T03:46:45;97991.72;;;5.51;100.00
10348;BME280;5220;43.192;23.284;2022-12-18T03:49:20;98002.25;;;5.68;100.00
10348;BME280;5220;43.192;23.284;2022-12-18T03:51:52;98015.91;;;5.70;100.00
10348;BME280;5220;43.192;23.284;2022-12-18T03:54:22;98016.31;;;5.82;100.00
10348;BME280;5220;43.192;23.284;2022-12-18T03:56:55;98018.09;;;5.82;100.00
10348;BME280;5220;43.192;23.284;2022-12-18T03:59:26;98016.38;;;5.81;100.00
10348;BME280;5220;43.192;23.284;2022-12-18T04:01:54;98024.72;;;5.89;100.00
10348;BME280;5220;43.192;23.284;2022-12-18T04:04:23;98029.03;;;5.88;100.00
10348;BME280;5220;43.192;23.284;2022-12-18T04:06:51;98037.63;;;5.89;100.00
10348;BME280;5220;43.192;23.284;2022-12-18T04:09:19;98045.47;;;5.86;100.00
10348;BME280;5220;43.192;23.284;2022-12-18T04:11:47;98053.25;;;5.84;100.00
10348;BME280;5220;43.192;23.284;2022-12-18T04:14:14;98047.84;;;5.67;100.00
10348;BME280;5220;43.192;23.284;2022-12-18T04:16:43;98057.03;;;5.76;100.00
10348;BME280;5220;43.192;23.284;2022-12-18T04:19:10;98066.25;;;5.58;100.00
10348;BME280;5220;43.192;23.284;2022-12-18T04:21:36;98060.78;;;5.42;100.00
10348;BME280;5220;43.192;23.284;2022-12-18T04:24:03;98081.81;;;5.32;100.00
10348;BME280;5220;43.192;23.284;2022-12-18T04:26:30;98085.75;;;5.42;100.00
10348;BME280;5220;43.192;23.284;2022-12-18T04:28:57;98075.50;;;5.40;100.00
10348;BME280;5220;43.192;23.284;2022-12-18T04:31:23;98091.44;;;5.52;100.00
10348;BME280;5220;43.192;23.284;2022-12-18T04:33:52;98096.97;;;5.41;100.00
10348;BME280;5220;43.192;23.284;2022-12-18T04:36:18;98112.34;;;5.44;100.00
10348;BME280;5220;43.192;23.284;2022-12-18T04:38:45;98108.94;;;5.43;100.00
10348;BME280;5220;43.192;23.284;2022-12-18T04:41:15;98108.03;;;5.45;100.00
10348;BME280;5220;43.192;23.284;2022-12-18T04:43:42;98114.31;;;5.37;100.00
10348;BME280;5220;43.192;23.284;2022-12-18T04:46:09;98122.91;;;5.36;100.00
10348;BME280;5220;43.192;23.284;2022-12-18T04:48:36;98132.13;;;5.19;100.00
10348;BME280;5220;43.192;23.284;2022-12-18T04:51:05;98134.19;;;5.34;100.00
10348;BME280;5220;43.192;23.284;2022-12-18T04:53:32;98136.75;;;5.35;100.00
10348;BME280;5220;43.192;23.284;2022-12-18T04:56:04;98134.84;;;5.40;100.00
10348;BME280;5220;43.192;23.284;2022-12-18T04:58:31;98153.63;;;5.44;100.00
10348;BME280;5220;43.192;23.284;2022-12-18T05:00:58;98139.88;;;5.43;100.00
10348;BME280;5220;43.192;23.284;2022-12-18T05:03:25;98147.63;;;5.43;100.00
10348;BME280;5220;43.192;23.284;2022-12-18T05:05:52;98160.13;;;5.56;100.00
10348;BME280;5220;43.192;23.284;2022-12-18T05:08:20;98139.56;;;5.53;100.00
10348;BME280;5220;43.192;23.284;2022-12-18T05:14:08;98157.41;;;5.60;100.00
10348;BME280;5220;43.192;23.284;2022-12-18T05:16:35;98160.41;;;5.73;100.00
10348;BME280;5220;43.192;23.284;2022-12-18T05:19:02;98159.38;;;5.77;100.00
10348;BME280;5220;43.192;23.284;2022-12-18T05:21:28;98174.75;;;5.80;100.00
10348;BME280;5220;43.192;23.284;2022-12-18T05:23:56;98172.19;;;5.80;100.00
10348;BME280;5220;43.192;23.284;2022-12-18T05:26:23;98184.97;;;5.83;100.00
10348;BME280;5220;43.192;23.284;2022-12-18T05:28:50;98169.91;;;5.71;100.00
10348;BME280;5220;43.192;23.284;2022-12-18T05:31:17;98186.69;;;5.84;100.00
10348;BME280;5220;43.192;23.284;2022-12-18T05:33:43;98177.63;;;5.72;100.00
10348;BME280;5220;43.192;23.284;2022-12-18T05:36:10;98172.88;;;5.85;100.00
10348;BME280;5220;43.192;23.284;2022-12-18T05:39:15;98183.69;;;5.96;100.00
10348;BME280;5220;43.192;23.284;2022-12-18T05:45:04;98173.69;;;5.87;100.00
10348;BME280;5220;43.192;23.284;2022-12-18T05:47:31;98179.22;;;6.01;100.00
10348;BME280;5220;43.192;23.284;2022-12-18T05:53:48;98184.69;;;6.17;100.00
10348;BME280;5220;43.192;23.284;2022-12-18T05:56:19;98196.59;;;6.21;100.00
10348;BME280;5220;43.192;23.284;2022-12-18T05:58:47;98201.75;;;6.21;100.00
10348;BME280;5220;43.192;23.284;2022-12-18T06:04:46;98218.56;;;5.83;100.00
10348;BME280;5220;43.192;23.284;2022-12-18T06:07:13;98212.75;;;5.76;100.00
10348;BME280;5220;43.192;23.284;2022-12-18T06:16:25;98219.03;;;5.69;100.00
10348;BME280;5220;43.192;23.284;2022-12-18T06:18:52;98219.72;;;5.74;100.00
10348;BME280;5220;43.192;23.284;2022-12-18T06:21:19;98237.13;;;5.68;100.00
10348;BME280;5220;43.192;23.284;2022-12-18T06:23:46;98232.75;;;5.70;100.00
10348;BME280;5220;43.192;23.284;2022-12-18T06:33:16;98252.56;;;5.97;100.00
10348;BME280;5220;43.192;23.284;2022-12-18T06:35:43;98255.72;;;5.79;100.00
10348;BME280;5220;43.192;23.284;2022-12-18T06:38:10;98248.84;;;6.04;100.00
10348;BME280;5220;43.192;23.284;2022-12-18T06:43:58;98253.97;;;6.30;100.00
10348;BME280;5220;43.192;23.284;2022-12-18T06:46:25;98258.50;;;6.24;100.00
10348;BME280;5220;43.192;23.284;2022-12-18T06:48:53;98258.38;;;6.27;100.00
10348;BME280;5220;43.192;23.284;2022-12-18T06:51:20;98267.50;;;6.37;100.00
10348;BME280;5220;43.192;23.284;2022-12-18T06:53:47;98269.97;;;6.40;100.00
10348;BME280;5220;43.192;23.284;2022-12-18T06:56:15;98267.91;;;6.49;100.00
10348;BME280;5220;43.192;23.284;2022-12-18T06:58:42;98263.84;;;6.42;100.00
10348;BME280;5220;43.192;23.284;2022-12-18T07:01:10;98257.31;;;6.32;100.00
10348;BME280;5220;43.192;23.284;2022-12-18T07:03:38;98270.63;;;6.46;100.00
10348;BME280;5220;43.192;23.284;2022-12-18T07:06:11;98275.31;;;6.35;100.00
10348;BME280;5220;43.192;23.284;2022-12-18T07:08:39;98271.91;;;6.35;100.00
10348;BME280;5220;43.192;23.284;2022-12-18T07:11:06;98279.81;;;6.30;100.00
10348;BME280;5220;43.192;23.284;2022-12-18T07:13:33;98272.81;;;6.32;100.00
10348;BME280;5220;43.192;23.284;2022-12-18T07:16:07;98272.38;;;6.44;100.00
10348;BME280;5220;43.192;23.284;2022-12-18T07:18:34;98277.59;;;6.68;100.00
10348;BME280;5220;43.192;23.284;2022-12-18T07:21:31;98278.31;;;6.71;100.00
10348;BME280;5220;43.192;23.284;2022-12-18T07:23:58;98278.25;;;6.73;100.00
10348;BME280;5220;43.192;23.284;2022-12-18T07:26:24;98282.75;;;6.68;100.00
10348;BME280;5220;43.192;23.284;2022-12-18T07:28:54;98277.88;;;6.83;100.00
10348;BME280;5220;43.192;23.284;2022-12-18T07:31:23;98275.56;;;6.76;100.00
10348;BME280;5220;43.192;23.284;2022-12-18T07:36:45;98282.03;;;6.87;100.00
10348;BME280;5220;43.192;23.284;2022-12-18T07:42:33;98287.63;;;6.52;100.00
10348;BME280;5220;43.192;23.284;2022-12-18T07:45:02;98288.28;;;6.59;100.00
10348;BME280;5220;43.192;23.284;2022-12-18T07:47:34;98285.13;;;6.74;100.00
10348;BME280;5220;43.192;23.284;2022-12-18T07:50:00;98297.94;;;6.77;100.00
10348;BME280;5220;43.192;23.284;2022-12-18T07:52:29;98301.63;;;6.70;100.00
10348;BME280;5220;43.192;23.284;2022-12-18T07:54:55;98290.75;;;6.62;100.00
10348;BME280;5220;43.192;23.284;2022-12-18T07:57:22;98286.22;;;6.43;100.00
10348;BME280;5220;43.192;23.284;2022-12-18T07:59:49;98300.69;;;6.49;100.00
10348;BME280;5220;43.192;23.284;2022-12-18T08:02:15;98304.44;;;6.64;100.00
10348;BME280;5220;43.192;23.284;2022-12-18T08:04:42;98310.16;;;6.48;100.00
10348;BME280;5220;43.192;23.284;2022-12-18T08:07:09;98308.31;;;6.52;100.00
10348;BME280;5220;43.192;23.284;2022-12-18T08:10:09;98317.91;;;6.48;100.00
10348;BME280;5220;43.192;23.284;2022-12-18T08:12:36;98318.00;;;6.47;100.00
10348;BME280;5220;43.192;23.284;2022-12-18T08:15:03;98321.09;;;6.57;100.00
10348;BME280;5220;43.192;23.284;2022-12-18T08:17:30;98297.66;;;6.61;100.00
10348;BME280;5220;43.192;23.284;2022-12-18T08:19:57;98319.28;;;6.82;100.00
10348;BME280;5220;43.192;23.284;2022-12-18T08:22:24;98329.00;;;7.00;100.00
10348;BME280;5220;43.192;23.284;2022-12-18T08:24:50;98324.44;;;6.83;100.00
10348;BME280;5220;43.192;23.284;2022-12-18T08:27:19;98329.53;;;6.62;100.00
10348;BME280;5220;43.192;23.284;2022-12-18T08:29:45;98331.13;;;6.66;100.00
10348;BME280;5220;43.192;23.284;2022-12-18T08:32:12;98342.22;;;6.68;100.00
10348;BME280;5220;43.192;23.284;2022-12-18T08:34:39;98342.66;;;6.56;100.00
10348;BME280;5220;43.192;23.284;2022-12-18T08:37:06;98335.59;;;6.61;100.00
10348;BME280;5220;43.192;23.284;2022-12-18T08:39:33;98333.97;;;6.58;100.00
10348;BME280;5220;43.192;23.284;2022-12-18T08:42:00;98336.75;;;6.52;100.00
10348;BME280;5220;43.192;23.284;2022-12-18T08:44:45;98342.66;;;6.80;100.00
10348;BME280;5220;43.192;23.284;2022-12-18T08:47:12;98350.03;;;6.91;100.00
10348;BME280;5220;43.192;23.284;2022-12-18T08:49:39;98348.66;;;7.04;100.00
10348;BME280;5220;43.192;23.284;2022-12-18T08:52:06;98345.72;;;7.13;100.00
10348;BME280;5220;43.192;23.284;2022-12-18T08:54:33;98345.19;;;7.05;100.00
10348;BME280;5220;43.192;23.284;2022-12-18T08:56:59;98334.91;;;7.03;100.00
10348;BME280;5220;43.192;23.284;2022-12-18T08:59:30;98346.69;;;7.34;100.00
10348;BME280;5220;43.192;23.284;2022-12-18T09:01:58;98333.91;;;7.29;100.00
10348;BME280;5220;43.192;23.284;2022-12-18T09:04:25;98351.06;;;7.32;100.00
10348;BME280;5220;43.192;23.284;2022-12-18T09:06:54;98330.16;;;7.15;100.00
10348;BME280;5220;43.192;23.284;2022-12-18T09:09:21;98341.69;;;7.29;100.00
10348;BME280;5220;43.192;23.284;2022-12-18T09:11:48;98349.09;;;7.38;100.00
10348;BME280;5220;43.192;23.284;2022-12-18T09:14:15;98346.47;;;7.40;100.00
10348;BME280;5220;43.192;23.284;2022-12-18T09:16:41;98353.34;;;7.18;100.00
10348;BME280;5220;43.192;23.284;2022-12-18T09:19:10;98344.47;;;7.25;100.00
10348;BME280;5220;43.192;23.284;2022-12-18T09:21:39;98340.56;;;7.13;100.00
10348;BME280;5220;43.192;23.284;2022-12-18T09:24:12;98348.59;;;7.29;100.00
10348;BME280;5220;43.192;23.284;2022-12-18T09:26:39;98354.06;;;7.21;100.00
10348;BME280;5220;43.192;23.284;2022-12-18T09:29:06;98364.88;;;7.09;100.00
10348;BME280;5220;43.192;23.284;2022-12-18T09:31:34;98363.00;;;6.89;100.00
10348;BME280;5220;43.192;23.284;2022-12-18T09:34:01;98360.09;;;6.98;100.00
10348;BME280;5220;43.192;23.284;2022-12-18T09:36:30;98353.66;;;6.85;100.00
10348;BME280;5220;43.192;23.284;2022-12-18T09:38:56;98357.72;;;6.92;100.00
10348;BME280;5220;43.192;23.284;2022-12-18T09:44:49;98364.94;;;7.31;100.00
10348;BME280;5220;43.192;23.284;2022-12-18T09:47:18;98367.47;;;7.09;100.00
10348;BME280;5220;43.192;23.284;2022-12-18T09:49:53;98368.25;;;6.88;100.00
10348;BME280;5220;43.192;23.284;2022-12-18T09:52:26;98374.69;;;6.76;100.00
10348;BME280;5220;43.192;23.284;2022-12-18T09:54:58;98385.13;;;6.73;100.00
10348;BME280;5220;43.192;23.284;2022-12-18T09:57:28;98381.75;;;6.71;100.00
10348;BME280;5220;43.192;23.284;2022-12-18T09:59:59;98374.84;;;6.72;100.00
10348;BME280;5220;43.192;23.284;2022-12-18T10:02:30;98381.38;;;6.82;100.00
10348;BME280;5220;43.192;23.284;2022-12-18T10:05:05;98390.03;;;6.81;100.00
10348;BME280;5220;43.192;23.284;2022-12-18T10:07:47;98389.94;;;6.84;100.00
10348;BME280;5220;43.192;23.284;2022-12-18T10:10:37;98383.69;;;6.89;100.00
10348;BME280;5220;43.192;23.284;2022-12-18T10:13:13;98369.81;;;6.92;100.00
10348;BME280;5220;43.192;23.284;2022-12-18T10:15:51;98389.34;;;7.47;100.00
10348;BME280;5220;43.192;23.284;2022-12-18T10:18:29;98381.34;;;7.30;100.00
10348;BME280;5220;43.192;23.284;2022-12-18T10:21:18;98383.53;;;7.17;100.00
10348;BME280;5220;43.192;23.284;2022-12-18T10:23:54;98395.25;;;7.27;100.00
10348;BME280;5220;43.192;23.284;2022-12-18T10:26:25;98397.09;;;7.24;100.00
10348;BME280;5220;43.192;23.284;2022-12-18T10:28:53;98393.91;;;7.17;100.00
10348;BME280;5220;43.192;23.284;2022-12-18T10:31:23;98391.75;;;7.05;100.00
10348;BME280;5220;43.192;23.284;2022-12-18T10:33:50;98385.50;;;7.11;100.00
10348;BME280;5220;43.192;23.284;2022-12-18T10:36:17;98402.09;;;7.05;100.00
10348;BME280;5220;43.192;23.284;2022-12-18T10:38:44;98402.88;;;7.07;100.00
10348;BME280;5220;43.192;23.284;2022-12-18T10:41:25;98397.31;;;6.94;100.00
10348;BME280;5220;43.192;23.284;2022-12-18T10:44:16;98392.72;;;7.02;100.00
10348;BME280;5220;43.192;23.284;2022-12-18T10:46:44;98374.03;;;7.18;100.00
10348;BME280;5220;43.192;23.284;2022-12-18T10:49:30;98389.34;;;7.24;100.00
10348;BME280;5220;43.192;23.284;2022-12-18T10:52:12;98388.38;;;7.49;100.00
10348;BME280;5220;43.192;23.284;2022-12-18T10:54:46;98387.19;;;7.58;100.00
10348;BME280;5220;43.192;23.284;2022-12-18T10:57:19;98386.47;;;7.76;100.00
10348;BME280;5220;43.192;23.284;2022-12-18T11:00:21;98385.75;;;7.73;100.00
10348;BME280;5220;43.192;23.284;2022-12-18T11:02:49;98381.72;;;7.66;100.00
10348;BME280;5220;43.192;23.284;2022-12-18T11:05:28;98376.38;;;7.25;100.00
10348;BME280;5220;43.192;23.284;2022-12-18T11:07:56;98397.78;;;7.29;100.00
10348;BME280;5220;43.192;23.284;2022-12-18T11:10:26;98385.69;;;7.52;100.00
10348;BME280;5220;43.192;23.284;2022-12-18T11:12:56;98390.00;;;7.52;100.00
10348;BME280;5220;43.192;23.284;2022-12-18T11:15:35;98395.69;;;7.38;100.00
10348;BME280;5220;43.192;23.284;2022-12-18T11:18:02;98399.00;;;7.42;100.00
10348;BME280;5220;43.192;23.284;2022-12-18T11:23:35;98393.31;;;7.55;100.00
10348;BME280;5220;43.192;23.284;2022-12-18T11:26:04;98388.84;;;7.37;100.00
10348;BME280;5220;43.192;23.284;2022-12-18T11:28:37;98387.19;;;7.35;100.00
10348;BME280;5220;43.192;23.284;2022-12-18T11:31:21;98382.41;;;7.47;100.00
10348;BME280;5220;43.192;23.284;2022-12-18T11:34:04;98382.94;;;7.34;100.00
10348;BME280;5220;43.192;23.284;2022-12-18T11:36:38;98382.66;;;7.18;100.00
10348;BME280;5220;43.192;23.284;2022-12-18T11:39:12;98404.88;;;7.24;100.00
10348;BME280;5220;43.192;23.284;2022-12-18T11:41:47;98384.69;;;7.33;100.00
10348;BME280;5220;43.192;23.284;2022-12-18T11:44:38;98382.13;;;7.32;100.00
10348;BME280;5220;43.192;23.284;2022-12-18T11:47:12;98395.03;;;7.33;100.00
10348;BME280;5220;43.192;23.284;2022-12-18T11:49:41;98407.09;;;7.34;100.00
10348;BME280;5220;43.192;23.284;2022-12-18T11:52:15;98395.31;;;7.71;100.00
10348;BME280;5220;43.192;23.284;2022-12-18T11:54:43;98396.34;;;7.88;100.00
10348;BME280;5220;43.192;23.284;2022-12-18T11:57:16;98385.69;;;7.74;95.84
10348;BME280;5220;43.192;23.284;2022-12-18T11:59:53;98387.22;;;7.56;95.61
10348;BME280;5220;43.192;23.284;2022-12-18T12:02:43;98384.63;;;7.56;95.99
10348;BME280;5220;43.192;23.284;2022-12-18T12:05:22;98403.84;;;7.51;92.29
10348;BME280;5220;43.192;23.284;2022-12-18T12:07:56;98389.66;;;7.83;96.70
10348;BME280;5220;43.192;23.284;2022-12-18T12:14:02;98381.66;;;7.89;98.93
10348;BME280;5220;43.192;23.284;2022-12-18T12:16:37;98385.38;;;8.03;96.90
10348;BME280;5220;43.192;23.284;2022-12-18T12:19:19;98388.09;;;7.79;100.00
10348;BME280;5220;43.192;23.284;2022-12-18T12:21:53;98386.22;;;7.82;99.79
10348;BME280;5220;43.192;23.284;2022-12-18T12:24:33;98395.31;;;7.71;100.00
10348;BME280;5220;43.192;23.284;2022-12-18T12:27:10;98384.97;;;7.71;100.00
10348;BME280;5220;43.192;23.284;2022-12-18T12:29:50;98392.09;;;7.66;100.00
10348;BME280;5220;43.192;23.284;2022-12-18T12:32:33;98395.44;;;7.68;100.00
10348;BME280;5220;43.192;23.284;2022-12-18T12:35:16;98394.84;;;7.61;100.00
10348;BME280;5220;43.192;23.284;2022-12-18T12:37:53;98395.22;;;7.74;100.00
10348;BME280;5220;43.192;23.284;2022-12-18T12:40:37;98394.94;;;7.81;100.00
10348;BME280;5220;43.192;23.284;2022-12-18T12:43:16;98387.84;;;7.85;100.00
10348;BME280;5220;43.192;23.284;2022-12-18T12:45:48;98394.25;;;7.98;100.00
10348;BME280;5220;43.192;23.284;2022-12-18T12:48:24;98386.72;;;7.92;100.00
10348;BME280;5220;43.192;23.284;2022-12-18T12:51:04;98385.50;;;8.00;100.00
10348;BME280;5220;43.192;23.284;2022-12-18T12:57:00;98401.28;;;7.73;100.00
10348;BME280;5220;43.192;23.284;2022-12-18T12:59:36;98401.63;;;7.64;100.00
10348;BME280;5220;43.192;23.284;2022-12-18T13:02:08;98391.34;;;7.62;100.00
10348;BME280;5220;43.192;23.284;2022-12-18T13:04:55;98411.03;;;7.88;100.00
10348;BME280;5220;43.192;23.284;2022-12-18T13:14:29;98417.63;;;7.51;100.00
10348;BME280;5220;43.192;23.284;2022-12-18T13:30:53;98433.06;;;7.78;100.00
10348;BME280;5220;43.192;23.284;2022-12-18T13:33:47;98442.22;;;7.86;100.00
10348;BME280;5220;43.192;23.284;2022-12-18T13:36:26;98438.41;;;7.95;100.00
10348;BME280;5220;43.192;23.284;2022-12-18T13:39:23;98444.72;;;7.88;100.00
10348;BME280;5220;43.192;23.284;2022-12-18T13:48:36;98459.44;;;7.87;100.00
10348;BME280;5220;43.192;23.284;2022-12-18T13:54:41;98475.44;;;7.04;93.14
10348;BME280;5220;43.192;23.284;2022-12-18T14:07:05;98458.41;;;7.46;97.36
10348;BME280;5220;43.192;23.284;2022-12-18T14:19:36;98488.31;;;6.81;94.15
10348;BME280;5220;43.192;23.284;2022-12-18T14:22:05;98486.41;;;6.86;97.31
10348;BME280;5220;43.192;23.284;2022-12-18T14:24:31;98480.00;;;7.22;98.13
10348;BME280;5220;43.192;23.284;2022-12-18T14:27:12;98484.75;;;7.10;97.20
10348;BME280;5220;43.192;23.284;2022-12-18T14:33:10;98500.09;;;6.89;97.50
10348;BME280;5220;43.192;23.284;2022-12-18T14:35:39;98502.94;;;6.56;97.52
10348;BME280;5220;43.192;23.284;2022-12-18T14:38:32;98502.94;;;6.82;99.70
10348;BME280;5220;43.192;23.284;2022-12-18T14:41:18;98500.16;;;6.88;98.39
10348;BME280;5220;43.192;23.284;2022-12-18T14:43:46;98513.63;;;6.71;97.38
10348;BME280;5220;43.192;23.284;2022-12-18T14:49:35;98524.03;;;6.43;94.20
10348;BME280;5220;43.192;23.284;2022-12-18T14:52:30;98526.13;;;6.59;92.48
10348;BME280;5220;43.192;23.284;2022-12-18T14:54:59;98531.72;;;6.45;93.90
10348;BME280;5220;43.192;23.284;2022-12-18T14:57:30;98526.91;;;6.34;95.70
10348;BME280;5220;43.192;23.284;2022-12-18T15:00:06;98535.81;;;6.52;96.01
10348;BME280;5220;43.192;23.284;2022-12-18T15:05:46;98544.22;;;6.31;95.43
10348;BME280;5220;43.192;23.284;2022-12-18T15:08:29;98539.44;;;6.19;96.52
10348;BME280;5220;43.192;23.284;2022-12-18T15:14:35;98547.50;;;6.64;98.46
10348;BME280;5220;43.192;23.284;2022-12-18T15:17:06;98554.47;;;6.62;92.86
10348;BME280;5220;43.192;23.284;2022-12-18T15:23:03;98565.00;;;6.28;98.10
10348;BME280;5220;43.192;23.284;2022-12-18T15:25:34;98567.38;;;6.06;96.80
10348;BME280;5220;43.192;23.284;2022-12-18T15:35:09;98600.19;;;5.39;99.65
10348;BME280;5220;43.192;23.284;2022-12-18T15:37:40;98600.44;;;5.63;100.00
10348;BME280;5220;43.192;23.284;2022-12-18T15:40:17;98599.13;;;5.47;100.00
10348;BME280;5220;43.192;23.284;2022-12-18T15:42:56;98616.50;;;5.41;100.00